Ellington, Missouri
Current Conditions -  °F | °C
As of 8:55 PM on Sunday 23 Nov 2014 (Local Time) from KFAM Reporting Station
Overcast Overcast  
Wind Chill: 55°   Ceiling: 400
Heat Index: 55°   Visibility: 10mi
Dew Point: 54°   Wind: 14mph
Humidity: 94%   Direction: 160°SSE
Pressure: 29.31"   Gusts: 22mph
Location:  37.24°N, 90.97°W
Report Text: KFAM 240255Z AUTO 16012G19KT 10SM OVC004 13/12 A2931 RMK AO1 57007
Loading
Personal Weather Stations






























Interactive Weather Map New forecast layout! Learn more

10-Day Weather Forecast

Advertisements
Track Severe Weather on mobile